Amery, Wisconsin
Current Conditions -  °F | °C
As of 10:35 PM on Tuesday 21 Oct 2014 (Local Time) from KRNH Reporting Station
Clear Clear  
Wind Chill:   Ceiling: Unl
Heat Index:   Visibility: 10mi
Dew Point:   Wind: 5mph
Humidity: 75%   Direction: 130°SE
Pressure: 30.2"   Gusts: NA
Location:  45.31°N, 92.36°W
Report Text: KRNH 220335Z AUTO 13004KT 10SM CLR 06/02 A3020 RMK AO2 T00590018
Loading
Personal Weather Stations






























Interactive Weather Map
Tropical Storm Tracking
New forecast layout! Learn more

10-Day Weather Forecast

Advertisements
Track Severe Weather on mobile